Time;durP1;ratioP1;P1;durP2;ratioP2;P2;SDS_P1;SDS_P2;PMS_P1;PMS_P2;Temp;Humidity;BMP_temperature;BMP_pressure;BME280_temperature;BME280_humidity;BME280_pressure;Samples;Min_cycle;Max_cycle;Signal;HPM_P1;HPM_P2
2024/04/07 00:01:49;;;;;;;;;;;;;;;19.77;57.27;101354.91;5024638;28;20405;-86
2024/04/07 00:04:15;;;;;;;;;;;;;;;19.73;57.51;101355.75;5019112;28;19984;-85
2024/04/07 00:06:40;;;;;;;;;;;;;;;19.72;57.88;101354.13;5016414;28;20381;-86
2024/04/07 00:09:05;;;;;;;;;;;;;;;19.71;57.41;101352.53;5017993;28;19967;-85
2024/04/07 00:11:31;;;;;;;;;;;;;;;19.68;57.72;101350.41;5017778;28;20424;-85
2024/04/07 00:13:56;;;;;;;;;;;;;;;19.68;57.46;101344.97;5018633;28;19917;-86
2024/04/07 00:16:21;;;;;;;;;;;;;;;19.65;57.95;101338.22;5017304;28;19921;-85
2024/04/07 00:18:47;;;;;;;;;;;;;;;19.64;57.96;101352.09;5019849;28;19921;-85
2024/04/07 00:21:12;;;;;;;;;;;;;;;19.61;58.50;101348.88;5015946;28;20035;-86
2024/04/07 00:23:38;;;;;;;;;;;;;;;19.61;58.23;101342.63;5020805;28;19924;-85
2024/04/07 00:26:03;;;;;;;;;;;;;;;19.60;58.56;101341.81;5019780;28;19929;-85
2024/04/07 00:28:29;;;;;;;;;;;;;;;19.57;58.26;101345.13;5014390;28;19929;-85
2024/04/07 00:30:54;;;;;;;;;;;;;;;19.55;58.66;101331.00;5014878;28;20000;-87
2024/04/07 00:33:19;;;;;;;;;;;;;;;19.55;58.57;101339.16;5016486;28;19921;-85
2024/04/07 00:35:54;;;;;;;;;;;;;;;19.54;58.81;101340.25;5013920;28;20394;-85
2024/04/07 00:38:19;;;;;;;;;;;;;;;19.51;59.01;101342.72;5017039;28;19944;-86
2024/04/07 00:40:44;;;;;;;;;;;;;;;19.46;59.11;101340.91;5021387;28;20381;-85
2024/04/07 00:43:10;;;;;;;;;;;;;;;19.40;59.39;101336.66;5021411;28;19929;-85
2024/04/07 00:45:35;;;;;;;;;;;;;;;19.36;59.36;101341.03;5018517;28;20401;-86
2024/04/07 00:48:00;;;;;;;;;;;;;;;19.32;59.69;101334.56;5021098;28;19968;-85
2024/04/07 00:50:26;;;;;;;;;;;;;;;19.27;59.99;101338.16;5020258;28;19917;-85
2024/04/07 00:52:52;;;;;;;;;;;;;;;19.27;59.39;101337.34;5021612;28;19928;-85
2024/04/07 00:55:17;;;;;;;;;;;;;;;19.26;59.47;101338.47;5019632;28;19967;-85
2024/04/07 00:57:43;;;;;;;;;;;;;;;19.23;60.32;101339.03;5019067;28;19964;-85
2024/04/07 01:00:09;;;;;;;;;;;;;;;19.20;60.63;101329.53;5020865;28;19967;-85
2024/04/07 01:02:34;;;;;;;;;;;;;;;19.22;59.92;101321.94;5019600;28;20369;-85
2024/04/07 01:05:00;;;;;;;;;;;;;;;19.20;60.46;101326.81;5020258;28;20060;-85
2024/04/07 01:07:25;;;;;;;;;;;;;;;19.20;60.35;101328.75;5020651;28;20004;-85
2024/04/07 01:09:51;;;;;;;;;;;;;;;19.18;60.52;101330.94;5021623;28;19927;-85
2024/04/07 01:12:16;;;;;;;;;;;;;;;19.17;60.61;101332.84;5020394;28;19925;-85
2024/04/07 01:14:41;;;;;;;;;;;;;;;19.17;60.39;101329.31;5020626;28;19940;-85
2024/04/07 01:17:06;;;;;;;;;;;;;;;19.13;60.70;101331.81;5020891;28;19957;-85
2024/04/07 01:19:34;;;;;;;;;;;;;;;19.14;60.47;101327.19;5020704;28;19926;-86
2024/04/07 01:22:00;;;;;;;;;;;;;;;19.15;61.18;101334.25;5017982;28;19917;-84
2024/04/07 01:24:25;;;;;;;;;;;;;;;19.12;61.00;101334.84;5020951;28;19932;-85
2024/04/07 01:26:51;;;;;;;;;;;;;;;19.13;60.97;101331.00;5019510;28;19917;-85
2024/04/07 01:29:17;;;;;;;;;;;;;;;19.12;61.47;101334.84;5020490;28;19921;-85
2024/04/07 01:31:42;;;;;;;;;;;;;;;19.12;61.10;101342.97;5019938;28;20432;-85
2024/04/07 01:34:07;;;;;;;;;;;;;;;19.10;61.13;101332.41;5018228;28;20063;-85
2024/04/07 01:36:32;;;;;;;;;;;;;;;19.09;61.65;101324.56;5023199;28;19975;-85
2024/04/07 01:38:58;;;;;;;;;;;;;;;19.09;61.14;101330.78;5024801;28;19921;-85
2024/04/07 01:41:23;;;;;;;;;;;;;;;19.09;61.23;101336.22;5023832;28;20293;-84
2024/04/07 01:43:48;;;;;;;;;;;;;;;19.07;61.62;101324.84;5023440;28;19916;-85
2024/04/07 01:46:13;;;;;;;;;;;;;;;19.06;61.51;101320.50;5022924;28;20060;-86
2024/04/07 01:48:40;;;;;;;;;;;;;;;19.07;61.62;101324.03;5023009;28;19921;-85
2024/04/07 01:51:05;;;;;;;;;;;;;;;19.06;62.01;101317.00;5021469;28;20597;-85
2024/04/07 01:53:31;;;;;;;;;;;;;;;19.05;62.14;101308.03;5024548;28;19925;-85
2024/04/07 01:55:56;;;;;;;;;;;;;;;19.04;63.02;101305.63;5024225;28;19960;-85
2024/04/07 01:58:21;;;;;;;;;;;;;;;19.04;62.40;101301.00;5024015;28;20475;-85
2024/04/07 02:00:46;;;;;;;;;;;;;;;19.01;63.00;101291.50;5021765;28;19921;-86
2024/04/07 02:03:12;;;;;;;;;;;;;;;19.01;62.66;101290.69;5021580;28;19921;-84
2024/04/07 02:05:37;;;;;;;;;;;;;;;19.01;62.61;101282.53;5039650;28;19925;-86
2024/04/07 02:08:03;;;;;;;;;;;;;;;19.02;63.03;101287.69;5022822;28;19964;-85
2024/04/07 02:10:28;;;;;;;;;;;;;;;19.02;62.83;101284.97;5021474;28;19917;-85
2024/04/07 02:12:53;;;;;;;;;;;;;;;19.02;62.67;101281.44;5022019;28;19971;-85
2024/04/07 02:15:18;;;;;;;;;;;;;;;19.04;62.46;101276.56;5020401;28;19983;-85
2024/04/07 02:17:44;;;;;;;;;;;;;;;19.05;62.35;101280.06;5019406;28;19925;-86
2024/04/07 02:20:09;;;;;;;;;;;;;;;19.05;62.57;101267.31;5022316;28;19921;-88
2024/04/07 02:22:34;;;;;;;;;;;;;;;19.06;62.55;101268.09;5028007;28;19932;-87
2024/04/07 02:24:59;;;;;;;;;;;;;;;19.04;63.17;101259.44;5023955;28;19921;-87
2024/04/07 02:27:25;;;;;;;;;;;;;;;19.02;62.56;101255.09;5023749;28;19917;-87
2024/04/07 02:29:51;;;;;;;;;;;;;;;19.01;63.29;101242.59;5025550;28;20369;-87
2024/04/07 02:32:18;;;;;;;;;;;;;;;19.00;62.80;101242.91;5024443;28;23035;-87
2024/04/07 02:34:44;;;;;;;;;;;;;;;18.98;63.15;101248.63;5027736;28;19923;-87
2024/04/07 02:37:09;;;;;;;;;;;;;;;18.96;62.69;101264.41;5024637;28;19959;-86
2024/04/07 02:39:34;;;;;;;;;;;;;;;18.95;63.03;101248.41;5026015;28;19972;-87
2024/04/07 02:41:59;;;;;;;;;;;;;;;18.94;63.19;101246.81;5025167;28;20465;-87
2024/04/07 02:49:58;;;;;;;;;;;;;;;18.87;64.19;101260.75;5025341;28;19947;-86
2024/04/07 02:52:23;;;;;;;;;;;;;;;18.86;63.96;101253.69;5021485;28;19952;-87
2024/04/07 02:54:48;;;;;;;;;;;;;;;18.85;63.61;101246.66;5022223;28;20385;-87
2024/04/07 02:57:13;;;;;;;;;;;;;;;18.82;63.76;101247.22;5025629;28;19921;-87
2024/04/07 02:59:39;;;;;;;;;;;;;;;18.81;63.67;101242.88;5025764;28;20003;-87
2024/04/07 03:02:04;;;;;;;;;;;;;;;18.79;64.04;101250.50;5023559;28;20558;-87
2024/04/07 03:04:29;;;;;;;;;;;;;;;18.78;64.23;101258.94;5025181;28;19992;-86
2024/04/07 03:06:58;;;;;;;;;;;;;;;18.75;64.00;101249.47;5025454;28;20547;-86
2024/04/07 03:09:23;;;;;;;;;;;;;;;18.75;64.34;101259.53;5022365;28;19917;-87
2024/04/07 03:11:48;;;;;;;;;;;;;;;18.73;64.22;101254.41;5023807;28;20435;-87
2024/04/07 03:14:14;;;;;;;;;;;;;;;18.71;64.32;101249.25;5027246;28;19928;-87
2024/04/07 03:16:39;;;;;;;;;;;;;;;18.71;64.80;101246.56;5025445;28;19932;-87
2024/04/07 03:19:04;;;;;;;;;;;;;;;18.70;64.53;101241.41;5025627;28;19971;-86
2024/04/07 03:21:29;;;;;;;;;;;;;;;18.68;65.28;101241.72;5025023;28;19924;-87
2024/04/07 03:23:54;;;;;;;;;;;;;;;18.68;64.64;101240.91;5018332;28;19924;-87
2024/04/07 03:26:19;;;;;;;;;;;;;;;18.68;64.97;101249.03;5015060;28;20046;-87
2024/04/07 03:28:47;;;;;;;;;;;;;;;18.68;64.92;101249.03;5022163;28;19925;-87
2024/04/07 03:31:13;;;;;;;;;;;;;;;18.65;64.87;101250.41;5022431;28;19953;-86
2024/04/07 03:33:39;;;;;;;;;;;;;;;18.64;64.68;101243.34;5023206;28;20019;-87
2024/04/07 03:36:04;;;;;;;;;;;;;;;18.65;64.65;101246.88;5020828;28;20154;-87
2024/04/07 03:38:29;;;;;;;;;;;;;;;18.64;65.42;101248.78;5022494;28;19918;-87
2024/04/07 03:40:54;;;;;;;;;;;;;;;18.65;64.95;101244.16;5025227;28;19928;-87
2024/04/07 03:43:19;;;;;;;;;;;;;;;18.65;64.73;101238.75;5022158;28;19922;-87
2024/04/07 03:45:45;;;;;;;;;;;;;;;18.64;65.45;101232.50;5023183;28;19928;-86
2024/04/07 03:48:12;;;;;;;;;;;;;;;18.63;65.38;101241.75;5019362;28;20402;-87
2024/04/07 03:50:40;;;;;;;;;;;;;;;18.63;65.19;101244.47;5024832;28;19972;-86
2024/04/07 03:53:05;;;;;;;;;;;;;;;18.64;65.19;101242.56;5023867;28;19960;-87
2024/04/07 03:55:30;;;;;;;;;;;;;;;18.63;65.31;101236.31;5022467;28;20712;-86
2024/04/07 03:57:55;;;;;;;;;;;;;;;18.65;64.70;101238.75;5022171;28;19925;-87
2024/04/07 04:00:20;;;;;;;;;;;;;;;18.62;65.27;101239.28;5023191;28;19925;-86
2024/04/07 04:02:46;;;;;;;;;;;;;;;18.60;65.19;101246.91;5023627;28;20393;-87
2024/04/07 04:05:11;;;;;;;;;;;;;;;18.56;65.37;101254.84;5027253;28;19921;-86
2024/04/07 04:07:36;;;;;;;;;;;;;;;18.52;65.56;101253.00;5021619;28;19916;-86
2024/04/07 04:10:01;;;;;;;;;;;;;;;18.47;66.08;101264.69;5020392;28;19939;-87
2024/04/07 04:12:28;;;;;;;;;;;;;;;18.45;65.75;101263.38;5024204;28;19917;-87
2024/04/07 04:14:53;;;;;;;;;;;;;;;18.41;66.10;101268.56;5022553;28;19921;-87
2024/04/07 04:17:19;;;;;;;;;;;;;;;18.38;65.82;101267.25;5024655;28;19920;-87
2024/04/07 04:19:44;;;;;;;;;;;;;;;18.39;66.07;101262.63;5025854;28;19925;-86
2024/04/07 04:22:10;;;;;;;;;;;;;;;18.38;65.86;101261.81;5022282;28;19921;-87
2024/04/07 04:24:35;;;;;;;;;;;;;;;18.36;65.99;101255.88;5025514;28;19932;-85
2024/04/07 04:27:01;;;;;;;;;;;;;;;18.37;65.77;101254.78;5024411;28;19925;-86
2024/04/07 04:29:26;;;;;;;;;;;;;;;18.38;66.00;101250.97;5022477;28;20012;-87
2024/04/07 04:31:51;;;;;;;;;;;;;;;18.39;65.92;101246.34;5024543;28;19925;-87
2024/04/07 04:34:16;;;;;;;;;;;;;;;18.39;66.22;101247.16;5024497;28;19924;-86
2024/04/07 04:36:42;;;;;;;;;;;;;;;18.37;66.42;101249.34;5022507;28;20443;-86
2024/04/07 04:39:07;;;;;;;;;;;;;;;18.35;65.82;101251.53;5023895;28;19945;-87
2024/04/07 04:41:35;;;;;;;;;;;;;;;18.33;66.19;101253.75;5022871;28;19925;-86
2024/04/07 04:44:00;;;;;;;;;;;;;;;18.31;66.26;101252.38;5025697;28;20968;-87
2024/04/07 04:46:26;;;;;;;;;;;;;;;18.29;66.08;101247.25;5023960;28;20437;-86
2024/04/07 04:48:51;;;;;;;;;;;;;;;18.28;66.41;101248.34;5022989;28;19917;-87
2024/04/07 04:51:17;;;;;;;;;;;;;;;18.27;66.83;101254.06;5024787;28;19927;-87
2024/04/07 04:53:42;;;;;;;;;;;;;;;18.25;67.11;101258.97;5022939;28;20308;-87
2024/04/07 04:56:08;;;;;;;;;;;;;;;18.25;66.53;101240.78;5017100;28;19921;-86
2024/04/07 04:58:34;;;;;;;;;;;;;;;18.24;67.24;101250.03;5022530;28;20280;-87
2024/04/07 05:01:08;;;;;;;;;;;;;;;18.26;66.93;101245.13;5021789;28;19921;-87
2024/04/07 05:03:34;;;;;;;;;;;;;;;18.29;66.63;101230.16;5025921;28;19971;-87
2024/04/07 05:06:05;;;;;;;;;;;;;;;18.32;66.79;101238.56;5022868;28;19960;-87
2024/04/07 05:08:30;;;;;;;;;;;;;;;18.33;66.67;101237.47;5025008;28;19952;-87
2024/04/07 05:11:01;;;;;;;;;;;;;;;18.36;66.40;101236.88;5021729;28;19960;-87
2024/04/07 05:13:26;;;;;;;;;;;;;;;18.38;66.67;101234.69;5022620;28;19921;-86
2024/04/07 05:15:51;;;;;;;;;;;;;;;18.41;66.61;101220.53;5023402;28;19917;-86
2024/04/07 05:18:18;;;;;;;;;;;;;;;18.45;66.56;101219.97;5022066;28;19971;-87
2024/04/07 05:20:43;;;;;;;;;;;;;;;18.50;66.28;101218.00;5018638;28;19924;-88
2024/04/07 05:23:08;;;;;;;;;;;;;;;18.53;66.54;101212.00;5023378;28;19932;-87
2024/04/07 05:25:33;;;;;;;;;;;;;;;18.60;66.28;101217.06;5020754;28;20369;-87
2024/04/07 05:27:59;;;;;;;;;;;;;;;18.64;66.12;101210.78;5020983;28;19918;-86
2024/04/07 05:30:24;;;;;;;;;;;;;;;18.68;65.88;101200.19;5022523;28;19968;-87
2024/04/07 05:32:49;;;;;;;;;;;;;;;18.74;65.97;101195.50;5024983;28;20423;-87
2024/04/07 05:35:14;;;;;;;;;;;;;;;18.76;65.72;101202.25;5021663;28;20292;-86
2024/04/07 05:37:40;;;;;;;;;;;;;;;18.79;65.81;101207.09;5023062;28;20398;-87
2024/04/07 05:40:05;;;;;;;;;;;;;;;18.82;65.65;101206.50;5021956;28;20425;-87
2024/04/07 05:42:30;;;;;;;;;;;;;;;18.85;65.67;101197.78;5020736;28;19921;-87
2024/04/07 05:44:55;;;;;;;;;;;;;;;18.89;65.57;101200.72;5021166;28;19925;-87
2024/04/07 05:47:23;;;;;;;;;;;;;;;18.91;65.71;101203.94;5023821;28;19925;-86
2024/04/07 05:49:49;;;;;;;;;;;;;;;18.92;65.51;101198.22;5024741;28;19960;-87
2024/04/07 05:52:14;;;;;;;;;;;;;;;18.96;65.60;101201.16;5020280;28;19953;-87
2024/04/07 05:54:39;;;;;;;;;;;;;;;19.00;65.14;101202.97;5023856;28;20580;-87
2024/04/07 05:57:05;;;;;;;;;;;;;;;19.03;65.53;101204.31;5022628;28;19921;-87
2024/04/07 05:59:30;;;;;;;;;;;;;;;19.08;65.22;101203.44;5021054;28;19921;-87
2024/04/07 06:01:55;;;;;;;;;;;;;;;19.09;65.20;101200.44;5019813;28;19974;-87
2024/04/07 06:04:21;;;;;;;;;;;;;;;19.15;65.14;101207.38;5018985;28;19924;-87
2024/04/07 06:06:47;;;;;;;;;;;;;;;19.18;65.11;101206.78;5021677;28;19921;-87
2024/04/07 06:09:12;;;;;;;;;;;;;;;19.23;64.92;101216.81;5019755;28;20542;-87
2024/04/07 06:11:37;;;;;;;;;;;;;;;19.25;65.07;101209.16;5022692;28;19921;-86
2024/04/07 06:14:03;;;;;;;;;;;;;;;19.28;65.02;101217.53;5020650;28;19933;-86
2024/04/07 06:16:28;;;;;;;;;;;;;;;19.32;64.75;101220.44;5020143;28;20060;-86
2024/04/07 06:18:53;;;;;;;;;;;;;;;19.37;64.79;101228.50;5023170;28;19957;-87
2024/04/07 06:21:21;;;;;;;;;;;;;;;19.38;64.49;101241.00;5024339;28;19931;-86
2024/04/07 06:23:46;;;;;;;;;;;;;;;19.41;64.41;101250.50;5026211;28;19925;-86
2024/04/07 06:26:11;;;;;;;;;;;;;;;19.40;64.52;101257.03;5024712;28;19921;-87
2024/04/07 06:28:36;;;;;;;;;;;;;;;19.44;64.46;101272.44;5026072;28;19925;-87
2024/04/07 06:31:03;;;;;;;;;;;;;;;19.46;64.87;101269.44;5024234;28;19922;-87
2024/04/07 06:33:29;;;;;;;;;;;;;;;19.49;64.61;101272.38;5025089;28;19925;-87
2024/04/07 06:35:54;;;;;;;;;;;;;;;19.52;64.94;101273.69;5026960;28;19917;-87
2024/04/07 06:38:19;;;;;;;;;;;;;;;19.55;64.86;101273.91;5028591;28;19947;-87
2024/04/07 06:40:44;;;;;;;;;;;;;;;19.58;64.86;101281.50;5026850;28;19930;-87
2024/04/07 06:43:09;;;;;;;;;;;;;;;19.64;65.22;101282.22;5028328;28;19928;-86
2024/04/07 06:45:35;;;;;;;;;;;;;;;19.72;65.16;101272.59;5026672;28;19925;-87
2024/04/07 06:48:00;;;;;;;;;;;;;;;19.82;65.21;101270.53;5026973;28;19917;-90
2024/04/07 06:50:25;;;;;;;;;;;;;;;19.92;65.09;101272.25;5020072;28;19968;-87
2024/04/07 06:52:50;;;;;;;;;;;;;;;20.00;64.84;101277.03;5018162;28;19925;-88
2024/04/07 06:55:15;;;;;;;;;;;;;;;20.10;65.26;101281.47;5020142;28;19928;-88
2024/04/07 06:57:41;;;;;;;;;;;;;;;20.17;64.78;101284.63;5023997;28;19924;-89
2024/04/07 07:00:06;;;;;;;;;;;;;;;20.24;64.59;101293.19;5022579;28;20313;-88
2024/04/07 07:02:31;;;;;;;;;;;;;;;20.26;64.68;101295.59;5026460;28;20043;-88
2024/04/07 07:04:56;;;;;;;;;;;;;;;20.30;64.47;101294.72;5025737;28;19925;-86
2024/04/07 07:07:21;;;;;;;;;;;;;;;20.35;64.51;101291.09;5024239;28;20408;-86
2024/04/07 07:09:47;;;;;;;;;;;;;;;20.41;64.40;101293.44;5022914;28;20054;-86
2024/04/07 07:12:12;;;;;;;;;;;;;;;20.47;64.61;101283.28;5021859;28;19964;-86
2024/04/07 07:14:37;;;;;;;;;;;;;;;20.54;64.34;101293.78;5028216;28;19941;-86
2024/04/07 07:17:03;;;;;;;;;;;;;;;20.58;63.77;101290.13;5023131;28;20491;-87
2024/04/07 07:19:28;;;;;;;;;;;;;;;20.62;64.07;101296.59;5026238;28;19995;-86
2024/04/07 07:21:54;;;;;;;;;;;;;;;20.69;64.03;101288.03;5024190;28;19956;-86
2024/04/07 07:24:19;;;;;;;;;;;;;;;20.75;63.87;101293.06;5023943;28;20371;-86
2024/04/07 07:26:44;;;;;;;;;;;;;;;20.81;63.70;101308.19;5027470;28;19928;-85
2024/04/07 07:29:12;;;;;;;;;;;;;;;20.90;63.46;101307.47;5024591;28;20046;-86
2024/04/07 07:31:37;;;;;;;;;;;;;;;20.98;62.80;101304.84;5027546;28;20012;-86
2024/04/07 07:34:02;;;;;;;;;;;;;;;21.09;62.34;101310.91;5015427;28;19970;-86
2024/04/07 07:36:27;;;;;;;;;;;;;;;21.21;62.02;101319.38;5016387;28;19921;-87
2024/04/07 07:38:53;;;;;;;;;;;;;;;21.31;61.79;101319.16;5018286;28;19917;-85
2024/04/07 07:41:18;;;;;;;;;;;;;;;21.40;61.88;101309.16;5023664;28;19925;-86
2024/04/07 07:43:44;;;;;;;;;;;;;;;21.51;61.40;101325.25;5022692;28;20317;-88
2024/04/07 07:46:09;;;;;;;;;;;;;;;21.60;60.98;101321.50;5022995;28;20421;-86
2024/04/07 07:48:39;;;;;;;;;;;;;;;21.68;60.19;101322.69;5027332;28;19925;-88
2024/04/07 07:51:06;;;;;;;;;;;;;;;21.78;60.08;101338.81;5022603;28;19925;-86
2024/04/07 07:53:32;;;;;;;;;;;;;;;21.83;59.74;101338.69;5023108;28;19974;-86
2024/04/07 07:55:57;;;;;;;;;;;;;;;21.88;59.49;101344.03;5023721;28;19921;-86
2024/04/07 07:58:22;;;;;;;;;;;;;;;21.93;58.95;101354.84;5022135;28;19922;-85
2024/04/07 08:00:47;;;;;;;;;;;;;;;21.97;58.93;101350.34;5025326;28;20424;-86
2024/04/07 08:03:12;;;;;;;;;;;;;;;22.05;58.66;101353.47;5024208;28;20373;-84
2024/04/07 08:05:38;;;;;;;;;;;;;;;22.13;57.95;101366.41;5025419;28;19933;-87
2024/04/07 08:08:03;;;;;;;;;;;;;;;22.19;57.67;101362.41;5022530;28;19925;-90
2024/04/07 08:10:28;;;;;;;;;;;;;;;22.24;57.19;101367.75;5022863;28;19917;-90
2024/04/07 08:12:53;;;;;;;;;;;;;;;22.29;56.17;101367.63;5024591;28;20507;-89
2024/04/07 08:15:18;;;;;;;;;;;;;;;22.36;56.29;101381.63;5021949;28;19921;-85
2024/04/07 08:17:44;;;;;;;;;;;;;;;22.42;56.34;101377.63;5019713;28;19921;-84
2024/04/07 08:20:09;;;;;;;;;;;;;;;22.49;55.37;101383.47;5022366;28;19944;-88
2024/04/07 08:22:34;;;;;;;;;;;;;;;22.55;54.83;101387.69;5020376;28;20484;-85
2024/04/07 08:24:59;;;;;;;;;;;;;;;22.58;55.00;101392.50;5026150;28;19925;-85
2024/04/07 08:27:25;;;;;;;;;;;;;;;22.64;54.75;101384.22;5022153;28;19935;-88
2024/04/07 08:29:50;;;;;;;;;;;;;;;22.75;55.08;101388.25;5025831;28;20507;-88
2024/04/07 08:32:16;;;;;;;;;;;;;;;22.85;54.63;101382.56;5021813;28;20266;-88
2024/04/07 08:34:41;;;;;;;;;;;;;;;23.00;54.96;101382.16;5025369;28;19932;-89
2024/04/07 08:37:07;;;;;;;;;;;;;;;23.15;54.71;101397.28;5025994;28;19925;-86
2024/04/07 08:39:32;;;;;;;;;;;;;;;23.27;54.23;101397.50;5023997;28;19921;-85
2024/04/07 08:41:59;;;;;;;;;;;;;;;23.39;54.17;101402.34;5019608;28;19925;-85
2024/04/07 08:44:26;;;;;;;;;;;;;;;23.47;53.33;101394.16;5021698;28;19949;-87
2024/04/07 08:46:52;;;;;;;;;;;;;;;23.61;53.31;101405.00;5018144;28;19921;-86
2024/04/07 08:49:18;;;;;;;;;;;;;;;23.69;52.43;101395.97;5019008;28;20332;-91
2024/04/07 08:51:45;;;;;;;;;;;;;;;23.83;52.72;101403.22;5020139;28;19924;-86
2024/04/07 08:54:10;;;;;;;;;;;;;;;23.92;52.02;101398.59;5019815;28;19928;-85
2024/04/07 08:56:37;;;;;;;;;;;;;;;24.08;52.48;101407.91;5018405;28;19918;-84
2024/04/07 08:59:03;;;;;;;;;;;;;;;24.18;52.14;101413.03;5022262;28;19933;-85
2024/04/07 09:01:31;;;;;;;;;;;;;;;24.28;52.02;101412.72;5018153;28;19921;-87
2024/04/07 09:03:59;;;;;;;;;;;;;;;24.41;51.64;101419.16;5020594;28;19922;-89
2024/04/07 09:06:24;;;;;;;;;;;;;;;24.56;51.21;101417.84;5020832;28;19932;-86
2024/04/07 09:08:50;;;;;;;;;;;;;;;24.72;50.45;101424.41;5020341;28;19921;-85
2024/04/07 09:11:15;;;;;;;;;;;;;;;24.86;50.51;101427.75;5020138;28;19982;-86
2024/04/07 09:13:41;;;;;;;;;;;;;;;25.02;50.47;101435.47;5020562;28;19975;-87
2024/04/07 09:16:06;;;;;;;;;;;;;;;25.14;49.82;101443.81;5014540;28;19933;-86
2024/04/07 09:18:32;;;;;;;;;;;;;;;25.22;49.28;101448.44;5017760;28;20606;-85
2024/04/07 09:20:57;;;;;;;;;;;;;;;25.33;49.46;101446.94;5014998;28;19917;-84
2024/04/07 09:23:22;;;;;;;;;;;;;;;25.49;49.75;101455.38;5015867;28;19922;-84
2024/04/07 09:25:49;;;;;;;;;;;;;;;25.63;49.40;101455.16;5012570;28;19996;-83
2024/04/07 09:28:14;;;;;;;;;;;;;;;25.77;49.84;101462.03;5010824;28;19925;-83
2024/04/07 09:30:42;;;;;;;;;;;;;;;25.90;48.80;101458.22;5016582;28;20561;-84
2024/04/07 09:33:07;;;;;;;;;;;;;;;26.02;48.22;101467.66;5020013;28;19932;-88
2024/04/07 09:35:33;;;;;;;;;;;;;;;26.04;47.22;101474.44;5021539;28;19925;-84
2024/04/07 09:37:59;;;;;;;;;;;;;;;26.09;47.69;101463.25;5017986;28;19921;-86
2024/04/07 09:40:25;;;;;;;;;;;;;;;26.13;47.23;101475.16;5016818;28;19925;-87
2024/04/07 09:42:53;;;;;;;;;;;;;;;26.14;45.31;101484.19;5020992;28;19956;-87
2024/04/07 09:45:20;;;;;;;;;;;;;;;26.13;44.84;101485.34;5025599;28;19921;-89
2024/04/07 09:47:49;;;;;;;;;;;;;;;26.14;44.35;101479.50;5022259;28;19925;-85
2024/04/07 09:50:27;;;;;;;;;;;;;;;26.18;45.63;101485.13;5022148;28;19917;-89
2024/04/07 09:52:57;;;;;;;;;;;;;;;26.29;45.61;101485.53;5016921;28;20535;-85
2024/04/07 09:55:24;;;;;;;;;;;;;;;26.37;45.28;101487.41;5021328;28;19956;-84
2024/04/07 09:57:49;;;;;;;;;;;;;;;26.41;43.13;101480.94;5022492;28;19917;-85
2024/04/07 10:00:14;;;;;;;;;;;;;;;26.40;43.78;101473.84;5025023;28;19925;-86
2024/04/07 10:02:39;;;;;;;;;;;;;;;26.43;44.62;101478.66;5020731;28;19923;-84
2024/04/07 10:05:05;;;;;;;;;;;;;;;26.48;44.56;101478.44;5021521;28;20385;-86
2024/04/07 10:07:31;;;;;;;;;;;;;;;26.56;44.41;101489.66;5023745;28;19921;-85
2024/04/07 10:09:57;;;;;;;;;;;;;;;26.62;43.09;101486.38;5020237;28;19921;-89
2024/04/07 10:12:27;;;;;;;;;;;;;;;26.68;43.89;101468.53;5021393;28;20293;-88
2024/04/07 10:14:52;;;;;;;;;;;;;;;26.73;44.24;101448.25;5027985;28;19917;-86
2024/04/07 10:17:17;;;;;;;;;;;;;;;26.83;45.25;101441.53;5026842;28;19939;-86
2024/04/07 10:19:44;;;;;;;;;;;;;;;26.92;42.55;101470.50;5023533;28;19931;-88
2024/04/07 10:22:09;;;;;;;;;;;;;;;27.04;44.12;101473.31;5020158;28;19928;-85
2024/04/07 10:24:35;;;;;;;;;;;;;;;27.14;43.47;101480.34;5022780;28;19921;-84
2024/04/07 10:27:00;;;;;;;;;;;;;;;27.22;42.09;101478.59;5015249;28;19979;-85
2024/04/07 10:29:31;;;;;;;;;;;;;;;27.27;43.65;101490.19;5021746;28;19921;-85
2024/04/07 10:31:57;;;;;;;;;;;;;;;27.32;42.10;101492.72;5020750;28;19984;-85
2024/04/07 10:34:22;;;;;;;;;;;;;;;27.38;43.82;101496.03;5016135;28;19921;-85
2024/04/07 10:36:52;;;;;;;;;;;;;;;27.49;43.85;101496.41;5015261;28;20022;-87
2024/04/07 10:39:19;;;;;;;;;;;;;;;27.59;44.06;101485.72;5020510;28;20684;-87
2024/04/07 10:41:45;;;;;;;;;;;;;;;27.75;42.91;101496.84;5020903;28;19925;-86
2024/04/07 10:44:10;;;;;;;;;;;;;;;27.93;43.96;101505.66;5019432;28;19983;-91
2024/04/07 10:46:35;;;;;;;;;;;;;;;28.06;43.27;101509.19;5020388;28;19925;-86
2024/04/07 10:49:02;;;;;;;;;;;;;;;28.16;43.50;101514.19;5025143;28;20044;-91
2024/04/07 10:51:27;;;;;;;;;;;;;;;28.27;43.22;101521.66;5024942;28;20381;-94
2024/04/07 10:53:59;;;;;;;;;;;;;;;28.41;42.94;101515.78;5022074;28;19921;-87
2024/04/07 10:56:24;;;;;;;;;;;;;;;28.58;43.92;101520.19;5030170;28;19921;-92
2024/04/07 10:58:49;;;;;;;;;;;;;;;28.69;43.60;101531.47;5028347;28;19921;-91
2024/04/07 11:01:15;;;;;;;;;;;;;;;28.72;42.00;101525.25;5026388;28;19956;-93
2024/04/07 11:03:40;;;;;;;;;;;;;;;28.72;42.46;101526.06;5020660;28;20378;-90
2024/04/07 11:06:07;;;;;;;;;;;;;;;28.65;41.01;101538.88;5026505;28;19932;-91
2024/04/07 11:08:32;;;;;;;;;;;;;;;28.59;42.25;101538.31;5023434;28;19921;-90
2024/04/07 11:10:57;;;;;;;;;;;;;;;28.67;41.89;101540.13;5028123;28;19921;-90
2024/04/07 11:13:23;;;;;;;;;;;;;;;28.75;42.05;101546.66;5028932;28;19927;-88
2024/04/07 11:15:49;;;;;;;;;;;;;;;28.75;41.91;101546.66;5027119;28;19929;-89
2024/04/07 11:18:15;;;;;;;;;;;;;;;28.78;42.49;101541.22;5022847;28;19921;-85
2024/04/07 11:20:40;;;;;;;;;;;;;;;28.88;42.04;101553.72;5025900;28;19925;-91
2024/04/07 11:23:07;;;;;;;;;;;;;;;28.83;42.40;101548.44;5024386;28;19928;-89
2024/04/07 11:25:32;;;;;;;;;;;;;;;28.75;42.00;101558.47;5025613;28;19935;-92
2024/04/07 11:27:57;;;;;;;;;;;;;;;28.74;41.64;101550.56;5020557;28;19920;-88
2024/04/07 11:30:37;;;;;;;;;;;;;;;28.75;40.42;101557.66;5024278;28;20019;-88
2024/04/07 11:33:08;;;;;;;;;;;;;;;28.79;42.66;101570.41;5019566;28;19948;-91
2024/04/07 11:35:35;;;;;;;;;;;;;;;28.92;42.82;101568.41;5020285;28;19925;-89
2024/04/07 11:38:00;;;;;;;;;;;;;;;29.06;42.30;101567.97;5022257;28;19963;-88
2024/04/07 11:40:26;;;;;;;;;;;;;;;29.12;42.94;101572.91;5023960;28;19955;-93
2024/04/07 11:42:51;;;;;;;;;;;;;;;29.09;43.16;101570.84;5015524;28;19921;-86
2024/04/07 11:45:16;;;;;;;;;;;;;;;29.05;42.52;101592.00;5020961;28;20400;-84
2024/04/07 11:47:42;;;;;;;;;;;;;;;29.05;42.71;101583.72;5022368;28;19925;-94
2024/04/07 11:50:09;;;;;;;;;;;;;;;29.09;42.47;101589.38;5021015;28;19937;-88
2024/04/07 11:52:34;;;;;;;;;;;;;;;29.14;43.03;101575.31;5021408;28;19921;-91
2024/04/07 11:54:59;;;;;;;;;;;;;;;29.12;41.48;101581.19;5015585;28;19965;-91
2024/04/07 11:57:26;;;;;;;;;;;;;;;29.04;42.00;101575.81;5022665;28;20423;-90
2024/04/07 11:59:51;;;;;;;;;;;;;;;29.02;42.86;101573.41;5018774;28;20595;-88
2024/04/07 12:02:16;;;;;;;;;;;;;;;29.11;42.26;101557.50;5019406;28;19936;-87
2024/04/07 12:04:41;;;;;;;;;;;;;;;29.25;43.15;101561.75;5020330;28;20020;-86
2024/04/07 12:07:07;;;;;;;;;;;;;;;29.37;43.07;101565.25;5020195;28;19941;-88
2024/04/07 12:09:32;;;;;;;;;;;;;;;29.48;43.59;101557.28;5019479;28;19928;-83
2024/04/07 12:11:58;;;;;;;;;;;;;;;29.57;41.77;101557.88;5019378;28;20343;-88
2024/04/07 12:14:23;;;;;;;;;;;;;;;29.68;42.62;101555.38;5021520;28;20377;-87
2024/04/07 12:16:48;;;;;;;;;;;;;;;29.80;41.82;101555.25;5021340;28;19921;-87
2024/04/07 12:19:14;;;;;;;;;;;;;;;29.87;41.51;101565.69;5020830;28;19928;-87
2024/04/07 12:21:39;;;;;;;;;;;;;;;29.95;40.85;101559.16;5021636;28;20459;-88
2024/04/07 12:24:04;;;;;;;;;;;;;;;30.03;40.87;101563.69;5016827;28;20965;-88
2024/04/07 12:26:29;;;;;;;;;;;;;;;30.12;41.19;101564.31;5013094;28;19927;-89
2024/04/07 12:28:55;;;;;;;;;;;;;;;30.24;40.19;101566.94;5015637;28;19925;-88
2024/04/07 12:31:20;;;;;;;;;;;;;;;30.29;41.41;101558.34;5019747;28;19924;-87
2024/04/07 12:33:48;;;;;;;;;;;;;;;30.35;41.60;101561.66;5018636;28;19921;-89